This is the latest recevied weather packets stored in our database for station/object W2OBX. If no packets are shown the sender has not sent any weather packets the latest 1 day(s).
| Time | Temp. | Humidity | Pressure | Rain* | Wind** | Luminosity | Snow |
|---|---|---|---|---|---|---|---|
| 1778079174 | 18.33° C | 97% | 1013.9 hPa | 0 mm | - | 17 W/m² | - |
| 1778078872 | 18.33° C | 97% | 1013.7 hPa | 0 mm | - | 22 W/m² | - |
| 1778077963 | 18.33° C | 97% | 1013.8 hPa | 0 mm | - | 7 W/m² | - |
| 1778075846 | 18.33° C | 97% | 1012.2 hPa | 0 mm | - | 29 W/m² | - |
| 1778074936 | 18.33° C | 96% | 1012.7 hPa | 0 mm | - | 15 W/m² | - |
| 1778073117 | 18.89° C | 92% | 1012.5 hPa | 0 mm | - | 13 W/m² | - |
| 1778071907 | 18.89° C | 91% | 1012.1 hPa | 0 mm | - | 12 W/m² | - |
| 1778071302 | 18.33° C | 92% | 1012.1 hPa | 0 mm | - | 14 W/m² | - |
| 1778070395 | 16.67° C | 95% | 1011.8 hPa | 0 mm | - | 12 W/m² | - |
| 1778069790 | 16.11° C | 95% | 1011.9 hPa | 0 mm | - | 9 W/m² | - |
| 1778067673 | 15.56° C | 95% | 1011.4 hPa | 0 mm | - | 9 W/m² | - |
| 1778066764 | 15.56° C | 94% | 1011.4 hPa | 0 mm | - | 3 W/m² | - |
| 1778066462 | 15.56° C | 95% | 1011.3 hPa | 0 mm | - | 2 W/m² | - |
| 1778065554 | 15.56° C | 95% | 1011 hPa | 0 mm | - | 2 W/m² | - |
| 1778065251 | 15.56° C | 95% | 1011.2 hPa | 0 mm | - | 2 W/m² | - |
| 1778064947 | 15.56° C | 95% | 1011 hPa | 0 mm | - | 1 W/m² | - |
| 1778064040 | 15.56° C | 95% | 1010.4 hPa | 0 mm | - | 0 W/m² | - |
| 1778063737 | 15.56° C | 96% | 1010.4 hPa | 0 mm | - | 0 W/m² | - |
| 1778061921 | 15.56° C | 95% | 1010.5 hPa | 0 mm | - | 0 W/m² | - |
| 1778061013 | 15° C | 94% | 1010.4 hPa | 0 mm | - | 0 W/m² | - |
| 1778060409 | 15° C | 94% | 1010.3 hPa | 0 mm | - | 0 W/m² | - |
| 1778060107 | 15° C | 94% | 1010.5 hPa | 0 mm | - | 0 W/m² | - |
| 1778059198 | 15° C | 94% | 1010.1 hPa | 0 mm | - | 0 W/m² | - |
| 1778058897 | 15° C | 94% | 1010.2 hPa | 0 mm | - | 0 W/m² | - |
| 1778057381 | 15° C | 94% | 1010.2 hPa | 0 mm | - | 0 W/m² | - |
* Rain latest hour (hover to see other rain measurements)
** Current wind speed in m/s (hover to see current wind gust speed)